Time;durP1;ratioP1;P1;durP2;ratioP2;P2;SDS_P1;SDS_P2;PMS_P1;PMS_P2;Temp;Humidity;BMP_temperature;BMP_pressure;BME280_temperature;BME280_humidity;BME280_pressure;Samples;Min_cycle;Max_cycle;Signal;HPM_P1;HPM_P2
2021/03/27 06:25:46;;;;;;;0.30;0.20;;;;;;;7.92;80.01;100676.66;5089942;28;20555;-57
2021/03/27 06:28:31;;;;;;;0.30;0.20;;;;;;;7.86;79.86;100679.38;5089935;28;20473;-57
2021/03/27 06:31:16;;;;;;;0.30;0.20;;;;;;;7.87;78.88;100689.06;5081497;28;20458;-57
2021/03/27 06:33:51;;;;;;;0.30;0.20;;;;;;;8.13;78.87;100684.34;5081725;28;20533;-57
2021/03/27 06:37:11;;;;;;;0.30;0.20;;;;;;;8.23;77.17;100682.47;5082184;28;21003;-56
2021/03/27 06:39:49;;;;;;;0.30;0.20;;;;;;;8.52;76.48;100696.22;5074598;28;20442;-56
2021/03/27 06:43:05;;;;;;;0.30;0.20;;;;;;;8.45;74.89;100688.38;5062459;28;20445;-56
2021/03/27 06:46:09;;;;;;;0.30;0.20;;;;;;;8.71;74.29;100686.25;5055273;28;20819;-56
2021/03/27 06:49:14;;;;;;;0.30;0.20;;;;;;;8.86;72.63;100696.63;5081869;28;20466;-56
2021/03/27 06:52:17;;;;;;;0.30;0.20;;;;;;;8.76;73.35;100689.69;5082423;28;20450;-54
2021/03/27 06:54:48;;;;;;;0.30;0.20;;;;;;;8.76;72.11;100699.41;5082745;28;20530;-53
2021/03/27 06:57:31;;;;;;;0.30;0.20;;;;;;;8.80;72.03;100703.78;5080038;28;20878;-54
2021/03/27 07:00:25;;;;;;;0.30;0.20;;;;;;;8.99;71.48;100707.91;5075470;28;20514;-54
2021/03/27 07:03:06;;;;;;;0.30;0.20;;;;;;;9.02;71.51;100713.16;5075534;28;20487;-53
2021/03/27 07:05:56;;;;;;;0.30;0.20;;;;;;;8.83;71.71;100714.34;5076809;28;20919;-53
2021/03/27 07:08:54;;;;;;;0.30;0.20;;;;;;;8.77;72.07;100709.13;5066042;28;20472;-53
2021/03/27 07:11:39;;;;;;;0.30;0.20;;;;;;;8.76;72.70;100720.63;5075357;28;20444;-54
2021/03/27 07:14:11;;;;;;;0.30;0.20;;;;;;;8.84;73.16;100714.31;5075170;28;20947;-54
2021/03/27 07:17:13;;;;;;;0.30;0.20;;;;;;;8.97;72.95;100714.13;5078966;28;20454;-54
2021/03/27 07:19:59;;;;;;;0.30;0.20;;;;;;;8.99;73.18;100718.50;5065815;28;20440;-54
2021/03/27 07:23:22;;;;;;;0.30;0.20;;;;;;;9.28;73.11;100702.13;5082093;28;20455;-54
2021/03/27 07:25:57;;;;;;;0.30;0.20;;;;;;;9.10;72.45;100711.28;5080191;28;20453;-54
2021/03/27 07:28:32;;;;;;;0.30;0.20;;;;;;;9.19;71.69;100711.13;5081742;28;20518;-56
2021/03/27 07:31:17;;;;;;;0.30;0.20;;;;;;;9.20;71.69;100720.84;5080579;28;20449;-56
2021/03/27 07:34:08;;;;;;;0.30;0.20;;;;;;;9.10;70.83;100727.19;5082098;28;20449;-54
2021/03/27 07:37:12;;;;;;;0.30;0.20;;;;;;;9.19;71.49;100742.97;5069391;28;20442;-54
2021/03/27 07:39:59;;;;;;;0.30;0.20;;;;;;;9.48;71.03;100733.66;5055085;28;20435;-55
2021/03/27 07:42:52;;;;;;;0.30;0.20;;;;;;;9.38;71.30;100740.00;5052548;28;20463;-55
2021/03/27 07:45:38;;;;;;;0.30;0.20;;;;;;;9.48;70.62;100747.78;5061417;28;20497;-55
2021/03/27 07:48:29;;;;;;;0.30;0.20;;;;;;;9.41;70.81;100746.13;5069138;28;20469;-54
2021/03/27 07:51:09;;;;;;;0.30;0.20;;;;;;;9.44;69.61;100751.38;5066668;28;20453;-54
2021/03/27 07:54:24;;;;;;;0.30;0.20;;;;;;;9.72;70.15;100753.56;5068044;28;20445;-54
2021/03/27 07:57:10;;;;;;;0.30;0.20;;;;;;;9.43;70.32;100756.72;5067487;28;20526;-55
2021/03/27 08:00:12;;;;;;;0.30;0.20;;;;;;;9.53;70.78;100762.75;5067804;28;20512;-55
2021/03/27 08:03:08;;;;;;;0.30;0.20;;;;;;;9.10;70.89;100769.63;5068261;28;20454;-54
2021/03/27 08:05:50;;;;;;;0.30;0.20;;;;;;;9.17;71.53;100781.88;5067156;28;20477;-55
2021/03/27 08:08:25;;;;;;;0.30;0.20;;;;;;;9.39;71.90;100786.84;5066515;28;20933;-54
2021/03/27 08:11:26;;;;;;;0.30;0.20;;;;;;;9.58;72.48;100775.03;5067876;28;20494;-54
2021/03/27 08:14:39;;;;;;;0.30;0.20;;;;;;;9.77;72.05;100786.22;5066630;28;20857;-55
2021/03/27 08:17:20;;;;;;;0.30;0.20;;;;;;;9.59;72.24;100789.19;5067482;28;20553;-55
2021/03/27 08:20:13;;;;;;;0.30;0.20;;;;;;;9.50;72.36;100790.22;5063338;28;20533;-54
2021/03/27 08:23:08;;;;;;;0.30;0.20;;;;;;;9.67;71.98;100789.94;5060841;28;20842;-54
2021/03/27 08:26:11;;;;;;;0.30;0.20;;;;;;;9.34;71.66;100791.38;5060822;28;20507;-55
2021/03/27 08:28:56;;;;;;;0.30;0.20;;;;;;;9.58;72.58;100796.25;5060601;28;20462;-55
2021/03/27 08:31:58;;;;;;;0.30;0.20;;;;;;;9.42;72.92;100802.72;5063354;28;20465;-55
2021/03/27 08:34:49;;;;;;;0.30;0.20;;;;;;;9.39;72.93;100814.25;5052123;28;20922;-55
2021/03/27 08:37:34;;;;;;;0.30;0.20;;;;;;;9.88;71.88;100816.13;5060334;28;20470;-55
2021/03/27 08:40:25;;;;;;;0.30;0.20;;;;;;;10.17;70.80;100822.72;5060521;28;20497;-55
2021/03/27 08:42:51;;;;;;;0.30;0.20;;;;;;;9.83;70.17;100833.91;5061490;28;20443;-55
2021/03/27 08:45:23;;;;;;;0.30;0.20;;;;;;;9.95;70.66;100819.53;5067146;28;20548;-55
2021/03/27 08:48:20;;;;;;;0.30;0.20;;;;;;;10.13;70.68;100826.31;5065914;28;20474;-55
2021/03/27 08:51:03;;;;;;;0.30;0.20;;;;;;;10.29;69.16;100822.53;5046913;28;21013;-55
2021/03/27 08:54:03;;;;;;;0.30;0.20;;;;;;;10.46;69.52;100827.50;5062868;28;20947;-56
2021/03/27 08:56:57;;;;;;;0.30;0.20;;;;;;;10.37;67.90;100829.41;5059932;28;20446;-55
2021/03/27 08:59:57;;;;;;;0.30;0.20;;;;;;;10.28;68.07;100844.66;5060198;28;20443;-55
2021/03/27 09:02:29;;;;;;;0.30;0.20;;;;;;;10.65;68.45;100836.84;5060496;28;20447;-55
2021/03/27 09:05:13;;;;;;;0.30;0.20;;;;;;;10.53;67.11;100847.72;5045699;28;20492;-54
2021/03/27 09:07:54;;;;;;;0.30;0.20;;;;;;;10.23;68.31;100838.56;5059928;28;20466;-55
2021/03/27 09:10:21;;;;;;;0.30;0.20;;;;;;;10.35;69.67;100836.53;5062070;28;20450;-54
2021/03/27 09:12:54;;;;;;;0.30;0.20;;;;;;;10.34;70.95;100839.25;5066529;28;20856;-55
2021/03/27 09:15:39;;;;;;;0.30;0.20;;;;;;;10.59;69.88;100856.47;5065929;28;20450;-55
2021/03/27 09:18:12;;;;;;;0.30;0.20;;;;;;;10.43;69.46;100860.34;5064772;28;20901;-55
2021/03/27 09:20:39;;;;;;;0.30;0.20;;;;;;;10.49;70.99;100852.22;5066357;28;20508;-55
2021/03/27 09:23:24;;;;;;;0.30;0.20;;;;;;;10.56;70.51;100863.63;5062524;28;20527;-55
2021/03/27 09:26:12;;;;;;;0.30;0.20;;;;;;;10.47;70.43;100867.34;5059935;28;20861;-54
2021/03/27 09:29:02;;;;;;;0.30;0.20;;;;;;;10.03;72.28;100887.56;5058164;28;20459;-55
2021/03/27 09:32:12;;;;;;;0.30;0.20;;;;;;;10.38;72.49;100883.44;5061406;28;20443;-55
2021/03/27 09:34:59;;;;;;;0.30;0.20;;;;;;;10.28;73.39;100881.84;5054398;28;20467;-55
2021/03/27 09:38:03;;;;;;;0.30;0.20;;;;;;;10.43;73.09;100880.72;5064634;28;20506;-55
2021/03/27 09:41:06;;;;;;;0.30;0.20;;;;;;;9.98;75.50;100905.34;5059304;28;20444;-55
2021/03/27 09:44:26;;;;;;;0.30;0.20;;;;;;;10.06;75.49;100902.56;5059283;28;20592;-55
2021/03/27 09:47:13;;;;;;;0.30;0.20;;;;;;;10.20;75.54;100921.81;5047510;28;20466;-55
2021/03/27 09:50:04;;;;;;;0.30;0.20;;;;;;;9.79;77.60;100935.75;5047003;28;20869;-55
2021/03/27 09:52:59;;;;;;;0.30;0.20;;;;;;;9.65;80.75;100938.59;5064429;28;20442;-54
2021/03/27 09:55:40;;;;;;;0.30;0.20;;;;;;;9.67;82.58;100942.13;5062651;28;20853;-55
2021/03/27 09:58:16;;;;;;;0.30;0.20;;;;;;;9.62;83.41;100943.97;5065777;28;20467;-55
2021/03/27 10:00:42;;;;;;;0.30;0.20;;;;;;;9.51;82.17;100953.84;5065118;28;20454;-55
2021/03/27 10:03:26;;;;;;;0.30;0.20;;;;;;;9.89;81.23;100948.00;5059150;28;20446;-55
2021/03/27 10:05:59;;;;;;;0.30;0.20;;;;;;;9.71;79.70;100959.75;5059104;28;20451;-55
2021/03/27 10:08:41;;;;;;;0.30;0.20;;;;;;;10.10;78.83;100957.41;5063560;28;20467;-54
2021/03/27 10:11:16;;;;;;;0.30;0.20;;;;;;;10.36;77.29;100947.25;5065967;28;20447;-54
2021/03/27 10:14:04;;;;;;;0.30;0.20;;;;;;;10.80;75.43;100958.88;5064593;28;20456;-55
2021/03/27 10:16:45;;;;;;;0.30;0.20;;;;;;;10.59;73.74;100956.63;5063963;28;20451;-54
2021/03/27 10:19:17;;;;;;;0.30;0.20;;;;;;;10.71;72.93;100947.53;5063636;28;20516;-55
2021/03/27 10:21:59;;;;;;;0.30;0.20;;;;;;;10.72;71.93;100947.50;5063928;28;20452;-54
2021/03/27 10:24:35;;;;;;;0.30;0.20;;;;;;;11.14;71.72;100955.56;5064078;28;20489;-55
2021/03/27 10:27:24;;;;;;;0.30;0.20;;;;;;;11.00;71.03;100937.22;5065793;28;20445;-55
2021/03/27 10:30:00;;;;;;;0.30;0.20;;;;;;;11.04;70.20;100972.63;5063414;28;20441;-55
2021/03/27 10:32:29;;;;;;;0.30;0.20;;;;;;;11.03;71.55;100962.88;5058602;28;20518;-55
2021/03/27 10:35:25;;;;;;;0.30;0.20;;;;;;;10.94;71.65;100951.50;5059293;28;20443;-55
2021/03/27 10:38:18;;;;;;;0.30;0.20;;;;;;;11.12;71.44;100952.06;5051843;28;20496;-55
2021/03/27 10:40:52;;;;;;;0.30;0.20;;;;;;;11.48;68.49;100953.94;5049208;28;20463;-55
2021/03/27 10:43:33;;;;;;;0.30;0.20;;;;;;;11.79;67.52;100955.97;5058871;28;20441;-55
2021/03/27 10:46:11;;;;;;;0.30;0.20;;;;;;;12.06;65.65;100951.75;5058080;28;20451;-55
2021/03/27 10:48:41;;;;;;;0.30;0.20;;;;;;;11.73;65.35;100959.59;5045124;28;20470;-55
2021/03/27 10:51:40;;;;;;;0.30;0.20;;;;;;;11.57;66.01;100969.72;5058312;28;20452;-55
2021/03/27 10:54:31;;;;;;;0.30;0.20;;;;;;;10.79;69.37;100980.16;5064101;28;20445;-55
2021/03/27 10:57:11;;;;;;;0.30;0.20;;;;;;;10.35;74.36;100993.34;5063814;28;20451;-54
2021/03/27 10:59:59;;;;;;;0.30;0.20;;;;;;;10.19;80.30;100993.56;5065471;28;20451;-54
2021/03/27 11:02:48;;;;;;;0.30;0.20;;;;;;;9.79;83.24;100995.03;5065403;28;20495;-54
2021/03/27 11:05:20;;;;;;;0.30;0.20;;;;;;;9.50;81.94;100999.88;5062417;28;20493;-55
2021/03/27 11:08:11;;;;;;;0.30;0.20;;;;;;;9.63;84.33;100998.81;5065082;28;20474;-55
2021/03/27 11:11:03;;;;;;;0.30;0.20;;;;;;;9.61;85.96;101000.59;5066500;28;20445;-54
2021/03/27 11:14:06;;;;;;;0.30;0.20;;;;;;;9.49;89.16;101006.06;5066704;28;20441;-54
2021/03/27 11:16:41;;;;;;;0.30;0.20;;;;;;;9.68;89.23;100994.31;5066270;28;20450;-55
2021/03/27 11:19:07;;;;;;;0.30;0.20;;;;;;;9.96;89.51;100988.59;5066883;28;20558;-55
2021/03/27 11:22:11;;;;;;;0.30;0.20;;;;;;;9.76;83.21;100995.09;5065976;28;20450;-55
2021/03/27 11:25:14;;;;;;;0.30;0.20;;;;;;;9.51;85.18;100998.97;5066492;28;20490;-56
2021/03/27 11:28:09;;;;;;;0.30;0.20;;;;;;;9.47;83.92;101002.56;5050123;28;20552;-55
2021/03/27 11:30:53;;;;;;;0.30;0.20;;;;;;;9.61;81.36;101003.25;5061748;28;20450;-54
2021/03/27 11:33:33;;;;;;;0.30;0.20;;;;;;;9.41;77.25;101013.25;5062227;28;20442;-55
2021/03/27 11:36:11;;;;;;;0.30;0.20;;;;;;;9.33;80.85;101020.44;5066392;28;20804;-55
2021/03/27 11:38:44;;;;;;;0.30;0.20;;;;;;;9.47;81.80;101005.22;5068139;28;20508;-55
2021/03/27 11:41:22;;;;;;;0.30;0.20;;;;;;;9.82;80.51;101010.03;5067267;28;20495;-55
2021/03/27 11:44:04;;;;;;;0.30;0.20;;;;;;;10.09;76.23;101000.81;5068486;28;20486;-55
2021/03/27 11:46:52;;;;;;;0.30;0.20;;;;;;;10.34;74.19;101001.34;5067008;28;20459;-55
2021/03/27 11:49:36;;;;;;;0.30;0.20;;;;;;;10.63;73.51;100999.06;5062715;28;20446;-55
2021/03/27 11:52:36;;;;;;;0.30;0.20;;;;;;;10.55;71.74;100994.75;5051747;28;20992;-54
2021/03/27 11:55:14;;;;;;;0.30;0.20;;;;;;;10.74;71.04;100996.22;5061745;28;20441;-54
2021/03/27 11:57:45;;;;;;;0.30;0.20;;;;;;;10.60;70.42;100996.47;5061090;28;20478;-54
2021/03/27 12:00:47;;;;;;;0.30;0.20;;;;;;;10.64;68.62;101006.13;5066632;28;20947;-54
2021/03/27 12:03:47;;;;;;;0.30;0.20;;;;;;;10.68;68.98;101009.59;5048082;28;20450;-54
2021/03/27 12:06:19;;;;;;;0.30;0.20;;;;;;;10.59;68.40;101005.34;5061082;28;20499;-54
2021/03/27 12:09:16;;;;;;;0.30;0.20;;;;;;;10.83;67.27;101008.50;5062477;28;20546;-54
2021/03/27 12:12:40;;;;;;;0.30;0.20;;;;;;;11.02;66.80;101003.69;5053509;28;20438;-55
2021/03/27 12:15:27;;;;;;;0.30;0.20;;;;;;;11.04;66.53;101004.53;5061833;28;20439;-54
2021/03/27 12:18:15;;;;;;;0.30;0.20;;;;;;;10.94;65.45;101007.34;5047762;28;20889;-54
2021/03/27 12:20:59;;;;;;;0.30;0.20;;;;;;;11.19;64.95;100996.25;5058699;28;20443;-54
2021/03/27 12:23:31;;;;;;;0.30;0.20;;;;;;;11.33;64.15;100999.50;5062620;28;20943;-54
2021/03/27 12:26:38;;;;;;;0.30;0.20;;;;;;;11.53;63.17;100994.66;5068217;28;20450;-55
2021/03/27 12:29:16;;;;;;;0.30;0.20;;;;;;;11.63;63.42;100998.00;5066484;28;20469;-54
2021/03/27 12:32:28;;;;;;;0.30;0.20;;;;;;;11.78;61.51;101010.97;5066998;28;20441;-54
2021/03/27 12:35:02;;;;;;;0.30;0.20;;;;;;;11.37;61.35;101006.53;5061820;28;20504;-54
2021/03/27 12:37:45;;;;;;;0.30;0.20;;;;;;;11.68;62.89;101011.22;5049749;28;20518;-54
2021/03/27 12:40:27;;;;;;;0.40;0.30;;;;;;;11.77;63.13;101019.00;5061274;28;20442;-54
2021/03/27 12:43:10;;;;;;;0.30;0.20;;;;;;;11.73;63.51;101018.19;5061581;28;20520;-54
2021/03/27 12:45:42;;;;;;;0.30;0.20;;;;;;;11.49;62.16;101024.03;5050373;28;20492;-54
2021/03/27 12:48:36;;;;;;;0.30;0.20;;;;;;;11.63;62.86;101023.75;5067493;28;20473;-54
2021/03/27 12:51:25;;;;;;;0.30;0.20;;;;;;;11.07;64.38;101021.31;5060043;28;20491;-54
2021/03/27 12:54:13;;;;;;;0.30;0.20;;;;;;;11.04;65.01;101031.13;5064654;28;20443;-54
2021/03/27 12:57:00;;;;;;;0.30;0.20;;;;;;;11.21;64.81;101021.03;5042130;28;20894;-54
2021/03/27 12:59:38;;;;;;;0.30;0.20;;;;;;;11.07;65.31;101017.78;5067787;28;20503;-54
2021/03/27 13:02:26;;;;;;;0.40;0.30;;;;;;;11.01;64.63;101028.53;5064067;28;20450;-54
2021/03/27 13:05:17;;;;;;;0.30;0.20;;;;;;;10.96;65.62;101031.25;5066833;28;20494;-53
2021/03/27 13:08:13;;;;;;;0.30;0.20;;;;;;;11.06;65.96;101039.97;5066739;28;20462;-54
2021/03/27 13:11:08;;;;;;;0.30;0.20;;;;;;;11.17;65.79;101036.19;5065186;28;20446;-54
2021/03/27 13:13:52;;;;;;;0.30;0.20;;;;;;;11.17;64.77;101032.66;5065365;28;20446;-54
2021/03/27 13:16:25;;;;;;;0.30;0.20;;;;;;;11.27;65.51;101039.56;5065568;28;20880;-54
2021/03/27 13:19:07;;;;;;;0.30;0.20;;;;;;;11.31;64.68;101025.28;5064474;28;20847;-54
2021/03/27 13:21:59;;;;;;;0.30;0.20;;;;;;;11.31;64.68;101027.06;5064237;28;20450;-54
2021/03/27 13:24:34;;;;;;;0.30;0.20;;;;;;;11.67;65.46;101026.34;5065137;28;20540;-54
2021/03/27 13:27:11;;;;;;;0.30;0.20;;;;;;;11.65;64.55;101043.22;5066197;28;20463;-54
2021/03/27 13:29:43;;;;;;;0.30;0.20;;;;;;;11.88;65.08;101048.09;5063847;28;20450;-54
2021/03/27 13:32:09;;;;;;;0.30;0.20;;;;;;;11.63;64.59;101037.06;5058643;28;20446;-54
2021/03/27 13:35:02;;;;;;;0.30;0.20;;;;;;;11.38;66.08;101047.34;5061048;28;20447;-54
2021/03/27 13:37:28;;;;;;;0.30;0.20;;;;;;;11.88;65.53;101048.09;5050459;28;20814;-54
2021/03/27 13:40:23;;;;;;;0.30;0.20;;;;;;;11.42;65.23;101044.59;5059030;28;20457;-54
2021/03/27 13:43:21;;;;;;;0.30;0.20;;;;;;;11.70;66.60;101057.34;5060111;28;20455;-54
2021/03/27 13:46:04;;;;;;;0.30;0.20;;;;;;;11.63;66.72;101066.34;5052743;28;20489;-54
2021/03/27 13:48:52;;;;;;;0.30;0.20;;;;;;;11.75;66.78;101072.31;5066011;28;20528;-54
2021/03/27 13:51:30;;;;;;;0.30;0.20;;;;;;;11.58;67.96;101069.13;5061746;28;20453;-54
2021/03/27 13:54:16;;;;;;;0.30;0.20;;;;;;;11.34;68.79;101078.47;5063241;28;20442;-54
2021/03/27 13:57:14;;;;;;;0.30;0.20;;;;;;;11.28;71.17;101097.22;5050179;28;20452;-54
2021/03/27 14:00:00;;;;;;;0.30;0.20;;;;;;;11.00;73.54;101118.13;5059017;28;20453;-54
2021/03/27 14:02:47;;;;;;;0.30;0.20;;;;;;;10.36;79.56;101154.53;5058487;28;20443;-53
2021/03/27 14:05:35;;;;;;;0.30;0.20;;;;;;;9.25;87.83;101171.72;5052145;28;20493;-54
2021/03/27 14:08:37;;;;;;;0.30;0.20;;;;;;;8.21;95.93;101169.72;5059033;28;20493;-54
2021/03/27 14:11:13;;;;;;;0.30;0.20;;;;;;;8.18;100.00;101150.31;5059081;28;20866;-54
2021/03/27 14:13:48;;;;;;;0.30;0.20;;;;;;;8.11;100.00;101146.84;5061021;28;20446;-54
2021/03/27 14:16:25;;;;;;;0.30;0.20;;;;;;;8.36;100.00;101133.47;5066258;28;20446;-54
2021/03/27 14:19:18;;;;;;;0.30;0.20;;;;;;;8.51;100.00;101134.28;5063709;28;21049;-54
2021/03/27 14:22:27;;;;;;;0.30;0.20;;;;;;;8.70;100.00;101121.78;5064629;28;20454;-54
2021/03/27 14:25:15;;;;;;;0.30;0.20;;;;;;;8.73;100.00;101132.34;5032965;28;20532;-54
2021/03/27 14:28:25;;;;;;;0.30;0.20;;;;;;;9.13;100.00;101130.25;5051560;28;20557;-54
2021/03/27 14:31:01;;;;;;;0.30;0.20;;;;;;;9.25;97.56;101141.66;5053210;28;20868;-54
2021/03/27 14:33:41;;;;;;;0.30;0.20;;;;;;;9.24;96.89;101135.47;5059064;28;20939;-54
2021/03/27 14:36:28;;;;;;;0.30;0.20;;;;;;;9.41;97.86;101136.16;5062989;28;20501;-54
2021/03/27 14:39:25;;;;;;;0.30;0.20;;;;;;;9.37;97.72;101136.22;5059350;28;20471;-54
2021/03/27 14:42:22;;;;;;;0.30;0.20;;;;;;;9.45;95.45;101137.00;5057348;28;20499;-54
2021/03/27 14:45:06;;;;;;;0.30;0.20;;;;;;;9.66;96.41;101146.53;5058275;28;20903;-54
2021/03/27 14:47:47;;;;;;;0.30;0.20;;;;;;;9.71;93.73;101145.56;5072185;28;20473;-54
2021/03/27 14:50:23;;;;;;;0.30;0.20;;;;;;;9.57;93.38;101144.84;5062568;28;20493;-54
2021/03/27 14:53:10;;;;;;;0.30;0.20;;;;;;;9.61;95.42;101151.03;5062529;28;20927;-54
2021/03/27 14:55:45;;;;;;;0.30;0.20;;;;;;;9.56;92.88;101142.22;5065932;28;20435;-54
2021/03/27 14:58:26;;;;;;;0.30;0.20;;;;;;;9.43;92.04;101152.94;5069522;28;20861;-53
2021/03/27 15:00:56;;;;;;;0.30;0.20;;;;;;;9.58;90.44;101151.91;5069081;28;20449;-54
2021/03/27 15:03:29;;;;;;;0.30;0.20;;;;;;;9.70;88.36;101154.44;5064245;28;20949;-54
2021/03/27 15:06:29;;;;;;;0.30;0.20;;;;;;;9.87;87.14;101156.00;5062311;28;20915;-54
2021/03/27 15:09:43;;;;;;;1.63;1.53;;;;;;;10.05;87.74;101158.47;5061491;28;20470;-54
2021/03/27 15:12:26;;;;;;;0.30;0.20;;;;;;;10.00;85.77;101163.81;5060210;28;20445;-54
2021/03/27 15:15:19;;;;;;;0.30;0.20;;;;;;;10.36;86.82;101157.19;5067127;28;20443;-54
2021/03/27 15:18:06;;;;;;;0.30;0.20;;;;;;;10.65;85.09;101150.56;5068982;28;20471;-54
2021/03/27 15:20:34;;;;;;;0.30;0.20;;;;;;;10.53;83.23;101164.91;5068726;28;20454;-54
2021/03/27 15:23:16;;;;;;;0.30;0.20;;;;;;;10.48;81.89;101161.47;5064985;28;20481;-56
2021/03/27 15:29:09;;;;;;;0.30;0.20;;;;;;;9.91;84.37;101179.00;5077322;28;20472;-54
2021/03/27 16:08:54;;;;;;;0.30;0.20;;;;;;;9.10;91.19;101217.81;5090067;27;20571;-55
2021/03/27 16:12:04;;;;;;;0.30;0.20;;;;;;;9.12;89.75;101216.03;5081010;28;20438;-55
2021/03/27 16:14:50;;;;;;;0.30;0.20;;;;;;;9.28;90.21;101221.19;5083719;28;20446;-55
2021/03/27 16:17:50;;;;;;;0.30;0.20;;;;;;;9.43;89.95;101213.97;5083233;28;20463;-55
2021/03/27 16:20:39;;;;;;;0.30;0.20;;;;;;;9.38;89.07;101223.78;5082646;28;20449;-53
2021/03/27 16:23:39;;;;;;;0.30;0.20;;;;;;;9.49;88.19;101229.00;5080744;28;20511;-54
2021/03/27 16:26:11;;;;;;;0.30;0.20;;;;;;;9.43;89.04;101229.03;5063697;28;20445;-53
2021/03/27 16:29:08;;;;;;;0.30;0.20;;;;;;;9.61;88.06;101235.97;5075919;28;20494;-53
2021/03/27 16:32:03;;;;;;;0.30;0.20;;;;;;;9.54;87.78;101236.91;5077009;28;20468;-53
2021/03/27 16:34:54;;;;;;;0.30;0.20;;;;;;;9.79;87.42;101231.34;5067266;28;20460;-53
2021/03/27 16:37:29;;;;;;;0.30;0.20;;;;;;;9.73;87.83;101234.06;5075869;28;20568;-54
2021/03/27 16:40:06;;;;;;;0.30;0.20;;;;;;;9.74;87.30;101234.94;5075667;28;20446;-53
2021/03/27 16:42:53;;;;;;;0.30;0.20;;;;;;;9.64;86.80;101226.19;5079532;28;20441;-54
2021/03/27 16:45:31;;;;;;;0.30;0.20;;;;;;;9.59;87.22;101235.94;5082545;28;20449;-54
2021/03/27 16:48:10;;;;;;;0.30;0.20;;;;;;;10.01;86.15;101236.44;5065850;28;20601;-54
2021/03/27 16:50:52;;;;;;;0.30;0.20;;;;;;;10.05;85.88;101236.38;5064989;28;20969;-54
2021/03/27 16:53:39;;;;;;;0.30;0.20;;;;;;;9.92;85.34;101229.44;5082143;28;20445;-54
2021/03/27 16:56:24;;;;;;;0.30;0.20;;;;;;;9.53;87.58;101224.53;5082540;28;20453;-54
2021/03/27 16:59:02;;;;;;;0.30;0.20;;;;;;;9.97;86.26;101227.59;5078678;28;20461;-54
2021/03/27 17:01:43;;;;;;;0.30;0.20;;;;;;;9.79;86.00;101231.34;5074961;28;20934;-54
2021/03/27 17:04:36;;;;;;;0.30;0.20;;;;;;;9.76;86.26;101226.06;5075314;28;20446;-54
2021/03/27 17:07:05;;;;;;;0.30;0.20;;;;;;;9.71;86.34;101234.97;5076878;28;20547;-54
2021/03/27 17:09:35;;;;;;;0.30;0.20;;;;;;;9.48;87.28;101232.53;5081686;28;20799;-54
2021/03/27 17:12:28;;;;;;;0.30;0.20;;;;;;;9.32;87.94;101252.09;5080768;28;20567;-54
2021/03/27 17:15:03;;;;;;;0.30;0.20;;;;;;;9.06;88.81;101247.91;5079421;28;20778;-54
2021/03/27 17:17:38;;;;;;;0.30;0.20;;;;;;;9.39;87.38;101256.50;5081753;28;20454;-54
2021/03/27 17:20:26;;;;;;;0.30;0.20;;;;;;;9.06;88.89;101258.50;5067231;28;20860;-54
2021/03/27 17:23:10;;;;;;;0.30;0.20;;;;;;;8.91;89.58;101261.28;5067060;28;20501;-54
2021/03/27 17:25:54;;;;;;;0.30;0.20;;;;;;;8.85;89.53;101271.91;5068285;28;20445;-54
2021/03/27 17:28:29;;;;;;;0.30;0.20;;;;;;;8.94;89.02;101263.91;5068106;28;20515;-54
2021/03/27 17:31:13;;;;;;;0.30;0.20;;;;;;;8.78;88.73;101275.47;5066977;28;20516;-54
2021/03/27 17:33:42;;;;;;;0.30;0.20;;;;;;;8.73;89.73;101282.56;5068280;28;20454;-54
2021/03/27 17:36:30;;;;;;;0.30;0.20;;;;;;;8.92;88.71;101286.91;5065536;28;20441;-54
2021/03/27 17:39:16;;;;;;;0.30;0.20;;;;;;;8.76;89.19;101294.03;5067821;28;20520;-53
2021/03/27 17:42:21;;;;;;;0.30;0.20;;;;;;;8.60;90.83;101295.88;5068256;28;20439;-54
2021/03/27 17:45:18;;;;;;;0.30;0.20;;;;;;;8.51;90.64;101287.09;5068147;28;20457;-54
2021/03/27 17:47:57;;;;;;;0.30;0.20;;;;;;;8.53;91.04;101286.19;5050143;28;20552;-54
2021/03/27 17:50:54;;;;;;;0.30;0.20;;;;;;;8.58;90.20;101300.28;5056939;28;20450;-54
2021/03/27 17:53:44;;;;;;;0.30;0.20;;;;;;;8.53;90.93;101303.88;5061358;28;20855;-54
2021/03/27 17:56:22;;;;;;;0.30;0.20;;;;;;;8.18;92.27;101310.09;5060894;28;20450;-54
2021/03/27 17:59:00;;;;;;;0.30;0.20;;;;;;;8.15;93.54;101309.25;5064171;28;20462;-54
2021/03/27 18:01:57;;;;;;;0.30;0.20;;;;;;;8.20;92.51;101316.28;5067884;28;20469;-54
2021/03/27 18:04:37;;;;;;;0.30;0.20;;;;;;;8.20;91.71;101318.03;5067397;28;20484;-54
2021/03/27 18:07:12;;;;;;;0.30;0.20;;;;;;;8.15;92.38;101325.13;5065146;28;21071;-54
2021/03/27 18:09:42;;;;;;;0.30;0.20;;;;;;;8.20;91.47;101334.81;5059671;28;20446;-54
2021/03/27 18:12:22;;;;;;;0.30;0.20;;;;;;;8.33;91.17;101336.56;5061369;28;20451;-54
2021/03/27 18:15:00;;;;;;;0.30;0.20;;;;;;;8.57;90.38;101340.94;5050198;28;20449;-52
2021/03/27 18:17:55;;;;;;;0.30;0.20;;;;;;;8.77;89.19;101345.25;5060305;28;20558;-53
2021/03/27 18:20:42;;;;;;;0.30;0.20;;;;;;;8.59;88.71;101341.81;5057827;28;20517;-53
2021/03/27 18:23:43;;;;;;;0.30;0.20;;;;;;;8.49;89.73;101342.72;5051974;28;20563;-53
2021/03/27 18:26:22;;;;;;;0.30;0.20;;;;;;;8.55;89.35;101345.38;5066582;28;20537;-54
2021/03/27 18:29:07;;;;;;;0.30;0.20;;;;;;;8.28;89.42;101348.94;5067064;28;20493;-53
2021/03/27 18:31:50;;;;;;;0.30;0.20;;;;;;;8.22;90.47;101348.03;5063636;28;20450;-53
2021/03/27 18:34:24;;;;;;;0.30;0.20;;;;;;;8.25;89.50;101346.31;5067115;28;20454;-53
2021/03/27 18:36:55;;;;;;;0.30;0.20;;;;;;;8.17;90.10;101353.38;5066935;28;20442;-53
2021/03/27 18:39:33;;;;;;;0.30;0.20;;;;;;;8.19;89.46;101353.34;5053890;28;20447;-53
2021/03/27 18:42:12;;;;;;;0.30;0.20;;;;;;;8.27;89.48;101351.59;5067410;28;20534;-54
2021/03/27 18:45:00;;;;;;;0.30;0.20;;;;;;;8.45;89.06;101358.63;5066832;28;20456;-53
2021/03/27 18:47:37;;;;;;;0.30;0.20;;;;;;;8.32;88.13;101360.41;5049666;28;20555;-54
2021/03/27 18:50:19;;;;;;;0.30;0.20;;;;;;;8.45;87.97;101356.88;5052806;28;20496;-54
2021/03/27 18:52:51;;;;;;;0.30;0.20;;;;;;;8.51;87.69;101359.53;5066690;28;20438;-54
2021/03/27 18:55:34;;;;;;;0.30;0.20;;;;;;;8.50;87.24;101357.75;5061083;28;20446;-54
2021/03/27 18:58:04;;;;;;;0.30;0.20;;;;;;;8.69;87.04;101363.00;5060107;28;20488;-55
2021/03/27 19:00:34;;;;;;;0.30;0.20;;;;;;;8.55;86.62;101363.03;5061936;28;20848;-55
2021/03/27 19:03:10;;;;;;;0.30;0.20;;;;;;;8.51;88.04;101375.41;5066488;28;21082;-55
2021/03/27 19:05:39;;;;;;;0.30;0.20;;;;;;;8.47;87.66;101372.75;5066166;28;20449;-55
2021/03/27 19:08:14;;;;;;;0.30;0.20;;;;;;;8.45;87.48;101383.38;5065986;28;20498;-55
2021/03/27 19:10:44;;;;;;;0.30;0.20;;;;;;;8.64;88.02;101381.56;5066286;28;20926;-55
2021/03/27 19:13:28;;;;;;;0.30;0.20;;;;;;;8.67;88.03;101389.50;5061660;28;20929;-55
2021/03/27 19:16:05;;;;;;;0.30;0.20;;;;;;;8.64;89.05;101386.88;5060226;28;20548;-55
2021/03/27 19:18:39;;;;;;;0.30;0.20;;;;;;;8.59;88.83;101397.47;5060324;28;20527;-55
2021/03/27 19:21:43;;;;;;;0.30;0.20;;;;;;;8.79;88.00;101389.47;5060013;28;20576;-55
2021/03/27 19:24:40;;;;;;;0.30;0.20;;;;;;;8.44;89.51;101394.84;5059333;28;20507;-54
2021/03/27 19:27:10;;;;;;;0.30;0.20;;;;;;;8.48;88.75;101393.06;5059092;28;20566;-54
2021/03/27 19:29:51;;;;;;;0.30;0.20;;;;;;;8.47;89.38;101391.31;5062470;28;20455;-54
2021/03/27 19:32:27;;;;;;;0.30;0.20;;;;;;;8.84;87.94;101392.09;5065434;28;20501;-55
2021/03/27 19:35:19;;;;;;;0.30;0.20;;;;;;;8.39;89.66;101395.75;5066151;28;20441;-55
2021/03/27 19:37:49;;;;;;;0.30;0.20;;;;;;;8.41;89.11;101394.84;5063606;28;20461;-55
2021/03/27 19:40:28;;;;;;;0.30;0.20;;;;;;;8.37;88.76;101403.72;5058987;28;20442;-55
2021/03/27 19:43:13;;;;;;;0.30;0.20;;;;;;;8.28;89.80;101406.31;5059598;28;20508;-55
2021/03/27 19:45:51;;;;;;;0.30;0.20;;;;;;;8.27;89.78;101404.56;5049607;28;20453;-55
2021/03/27 19:48:52;;;;;;;0.30;0.20;;;;;;;8.42;89.29;101414.28;5062712;28;20498;-55
2021/03/27 19:51:21;;;;;;;0.30;0.20;;;;;;;8.23;90.48;101413.41;5064482;28;20552;-55
2021/03/27 19:54:15;;;;;;;0.30;0.20;;;;;;;8.58;89.03;101418.66;5063198;28;20936;-55
2021/03/27 19:56:59;;;;;;;0.30;0.20;;;;;;;8.42;89.32;101424.88;5058653;28;20446;-55
2021/03/27 19:59:51;;;;;;;0.30;0.20;;;;;;;8.21;89.63;101431.03;5059189;28;20450;-55